Time;durP1;ratioP1;P1;durP2;ratioP2;P2;SDS_P1;SDS_P2;PMS_P1;PMS_P2;Temp;Humidity;BMP_temperature;BMP_pressure;BME280_temperature;BME280_humidity;BME280_pressure;Samples;Min_cycle;Max_cycle;Signal;HPM_P1;HPM_P2
2022/11/04 00:01:39;;;;;;;1.27;1.10;;;10.60;99.90;;;;;;5032134;28;20171;-42
2022/11/04 00:04:05;;;;;;;1.37;1.20;;;10.50;99.90;;;;;;5031039;28;20221;-41
2022/11/04 00:06:31;;;;;;;1.43;1.27;;;10.50;99.90;;;;;;5014141;28;20187;-42
2022/11/04 00:08:58;;;;;;;2.07;1.50;;;10.50;99.90;;;;;;5014074;28;20254;-43
2022/11/04 00:14:12;;;;;;;2.93;1.50;;;10.50;99.90;;;;;;5031913;28;20197;-42
2022/11/04 00:19:23;;;;;;;2.90;1.90;;;10.50;99.90;;;;;;5032005;28;20182;-42
2022/11/04 00:29:59;;;;;;;3.90;1.70;;;10.50;99.90;;;;;;5030358;28;20217;-43
2022/11/04 00:35:10;;;;;;;2.37;1.60;;;10.50;99.90;;;;;;5031597;28;20202;-42
2022/11/04 00:37:41;;;;;;;2.17;1.70;;;10.50;99.90;;;;;;5030215;28;20297;-42
2022/11/04 00:40:09;;;;;;;1.77;1.37;;;10.60;99.90;;;;;;5030341;28;20195;-42
2022/11/04 00:42:35;;;;;;;1.80;1.33;;;10.60;99.90;;;;;;5013805;28;20186;-42
2022/11/04 00:45:01;;;;;;;2.23;1.30;;;10.60;99.90;;;;;;5031511;28;20190;-42
2022/11/04 00:47:27;;;;;;;2.30;1.60;;;10.70;99.90;;;;;;5062969;28;20187;-40
2022/11/04 00:49:53;;;;;;;2.00;1.50;;;10.70;99.90;;;;;;5013466;28;20297;-42
2022/11/04 00:52:19;;;;;;;2.17;1.20;;;10.70;99.90;;;;;;5029968;28;20278;-41
2022/11/04 00:54:45;;;;;;;3.03;1.40;;;10.70;99.90;;;;;;5031616;28;20254;-42
2022/11/04 00:57:14;;;;;;;2.47;1.43;;;10.70;99.90;;;;;;5029231;28;20178;-42
2022/11/04 00:59:40;;;;;;;1.53;1.20;;;10.70;99.90;;;;;;5030054;28;20627;-42
2022/11/04 01:02:08;;;;;;;1.40;1.30;;;10.70;99.90;;;;;;5030070;28;20178;-43
2022/11/04 01:04:34;;;;;;;1.47;1.20;;;10.70;99.90;;;;;;5029590;28;20231;-42
2022/11/04 01:07:01;;;;;;;0.87;0.87;;;10.70;99.90;;;;;;5046349;28;20257;-42
2022/11/04 01:09:27;;;;;;;2.50;1.00;;;10.70;99.90;;;;;;5013125;28;20195;-43
2022/11/04 01:11:53;;;;;;;1.10;1.00;;;10.70;99.90;;;;;;5029888;28;20182;-43
2022/11/04 01:14:19;;;;;;;1.27;1.10;;;10.70;99.90;;;;;;5046455;28;20210;-43
2022/11/04 01:16:45;;;;;;;2.27;1.10;;;10.60;99.90;;;;;;5012884;28;20220;-42
2022/11/04 01:19:11;;;;;;;1.67;1.13;;;10.60;99.90;;;;;;5031150;28;20167;-43
2022/11/04 01:21:37;;;;;;;1.97;1.33;;;10.50;99.90;;;;;;5055924;23;20232;-38
2022/11/04 01:24:03;;;;;;;1.33;1.20;;;10.50;99.90;;;;;;5049792;28;20169;-38
2022/11/04 01:26:29;;;;;;;3.10;1.30;;;10.50;99.90;;;;;;5050593;28;20282;-36
2022/11/04 01:28:57;;;;;;;0.97;0.83;;;10.50;99.90;;;;;;5050732;28;20185;-36
2022/11/04 01:31:28;;;;;;;0.90;0.90;;;10.50;99.90;;;;;;5049266;28;20785;-38
2022/11/04 01:33:54;;;;;;;0.83;0.83;;;10.40;99.90;;;;;;5033236;28;20185;-38
2022/11/04 01:36:21;;;;;;;0.90;0.90;;;10.40;99.90;;;;;;5032770;28;20222;-38
2022/11/04 01:38:48;;;;;;;2.17;1.00;;;10.40;99.90;;;;;;5049329;28;20224;-40
2022/11/04 01:41:23;;;;;;;1.23;0.90;;;10.40;99.90;;;;;;5032961;28;20185;-38
2022/11/04 01:44:01;;;;;;;1.00;0.90;;;10.40;99.90;;;;;;5049560;28;20231;-37
2022/11/04 01:46:49;;;;;;;1.33;1.07;;;10.40;99.90;;;;;;5032823;28;20182;-36
2022/11/04 01:49:27;;;;;;;1.10;0.80;;;10.30;99.90;;;;;;5032960;28;20240;-36
2022/11/04 01:52:12;;;;;;;1.13;0.80;;;10.30;99.90;;;;;;5032933;28;20204;-38
2022/11/04 01:54:40;;;;;;;1.10;0.80;;;10.30;99.90;;;;;;5049496;28;20307;-38
2022/11/04 01:57:10;;;;;;;0.97;0.80;;;10.30;99.90;;;;;;5049067;28;20178;-38
2022/11/04 01:59:39;;;;;;;1.80;1.00;;;10.20;99.90;;;;;;5032550;28;20182;-36
2022/11/04 02:02:06;;;;;;;1.00;0.90;;;10.20;99.90;;;;;;5049341;28;20209;-36
2022/11/04 02:04:32;;;;;;;1.33;0.90;;;10.20;99.90;;;;;;5050350;28;20189;-36
2022/11/04 02:07:05;;;;;;;1.77;0.90;;;10.20;99.90;;;;;;5049119;28;20189;-37
2022/11/04 02:09:32;;;;;;;1.10;1.00;;;10.20;99.90;;;;;;5035378;28;20182;-36
2022/11/04 02:14:44;;;;;;;1.07;0.97;;;10.10;99.90;;;;;;5054293;28;20202;-38
2022/11/04 02:17:19;;;;;;;1.23;1.10;;;10.10;99.90;;;;;;5052473;28;20545;-36
2022/11/04 02:20:02;;;;;;;2.10;0.90;;;10.10;99.90;;;;;;5036176;28;20189;-38
2022/11/04 02:23:16;;;;;;;2.17;1.00;;;10.10;99.90;;;;;;5036125;28;20214;-36
2022/11/04 02:26:10;;;;;;;0.77;0.77;;;10.10;99.90;;;;;;5036197;28;20236;-37
2022/11/04 02:29:07;;;;;;;0.97;0.83;;;10.10;99.90;;;;;;5052496;28;20283;-37
2022/11/04 02:32:10;;;;;;;1.17;1.00;;;10.10;99.90;;;;;;5035740;28;20214;-38
2022/11/04 02:34:44;;;;;;;3.50;1.70;;;10.00;99.90;;;;;;5035728;28;20189;-37
2022/11/04 02:37:32;;;;;;;4.07;3.27;;;10.00;99.90;;;;;;5052409;28;20181;-36
2022/11/04 02:40:11;;;;;;;4.70;3.57;;;10.00;99.90;;;;;;5035896;28;20299;-36
2022/11/04 02:42:41;;;;;;;5.63;3.80;;;10.00;99.90;;;;;;5036032;28;20205;-37
2022/11/04 02:45:32;;;;;;;3.10;1.90;;;9.90;99.90;;;;;;5052322;28;20216;-38
2022/11/04 02:48:19;;;;;;;0.87;0.83;;;9.90;99.90;;;;;;5052245;28;20231;-36
2022/11/04 02:50:55;;;;;;;1.23;0.70;;;9.90;99.90;;;;;;5035721;28;20224;-36
2022/11/04 02:53:30;;;;;;;0.70;0.60;;;9.80;99.90;;;;;;5035712;28;20189;-38
2022/11/04 02:55:58;;;;;;;1.43;0.80;;;9.80;99.90;;;;;;5035664;28;20177;-39
2022/11/04 02:58:30;;;;;;;2.23;0.73;;;9.80;99.90;;;;;;5035389;28;20174;-38
2022/11/04 03:00:58;;;;;;;1.43;0.90;;;9.80;99.90;;;;;;5052002;28;20227;-37
2022/11/04 03:03:27;;;;;;;0.60;0.60;;;9.80;99.90;;;;;;5051989;28;20193;-38
2022/11/04 03:05:54;;;;;;;1.83;0.70;;;9.70;99.90;;;;;;5051938;28;20185;-38
2022/11/04 03:08:26;;;;;;;1.97;0.80;;;9.70;99.90;;;;;;5051821;28;20186;-36
2022/11/04 03:11:01;;;;;;;0.93;0.70;;;9.70;99.90;;;;;;5035451;28;20237;-38
2022/11/04 03:13:49;;;;;;;1.67;1.07;;;9.70;99.90;;;;;;5051788;28;20232;-37
2022/11/04 03:16:36;;;;;;;3.00;1.20;;;9.60;99.90;;;;;;5035165;28;20544;-38
2022/11/04 03:19:18;;;;;;;1.40;1.30;;;9.60;99.90;;;;;;5052475;28;20174;-38
2022/11/04 03:22:02;;;;;;;1.27;1.17;;;9.60;99.90;;;;;;5051574;28;20219;-38
2022/11/04 03:24:30;;;;;;;2.00;1.00;;;9.60;99.90;;;;;;5051741;28;20185;-38
2022/11/04 03:27:09;;;;;;;2.70;0.93;;;9.60;99.90;;;;;;5051435;28;20197;-36
2022/11/04 03:29:50;;;;;;;1.73;0.77;;;9.50;99.90;;;;;;5053097;28;20204;-38
2022/11/04 03:32:42;;;;;;;1.07;0.83;;;9.50;99.90;;;;;;5034943;28;20204;-38
2022/11/04 03:35:09;;;;;;;0.80;0.80;;;9.50;99.90;;;;;;5051513;28;20194;-36
2022/11/04 03:37:35;;;;;;;1.00;0.90;;;9.40;99.90;;;;;;5034413;28;20178;-36
2022/11/04 03:40:02;;;;;;;1.10;1.00;;;9.40;99.90;;;;;;5051561;28;20208;-37
2022/11/04 03:42:30;;;;;;;1.20;1.10;;;9.40;99.90;;;;;;5052436;28;20205;-37
2022/11/04 03:44:56;;;;;;;2.50;1.70;;;9.40;99.90;;;;;;5034885;28;20189;-38
2022/11/04 03:47:26;;;;;;;1.40;1.30;;;9.40;99.90;;;;;;5034537;28;20248;-39
2022/11/04 03:50:20;;;;;;;2.60;1.37;;;9.40;99.90;;;;;;5034338;28;20202;-36
2022/11/04 03:52:46;;;;;;;1.30;0.80;;;9.40;99.90;;;;;;5040251;28;20249;-38
2022/11/04 03:55:12;;;;;;;1.07;0.87;;;9.30;99.90;;;;;;5034482;28;20204;-36
2022/11/04 03:58:22;;;;;;;1.27;0.70;;;9.30;99.90;;;;;;5034089;28;20185;-38
2022/11/04 04:01:18;;;;;;;1.50;0.60;;;9.30;99.90;;;;;;4993711;28;20199;-38
2022/11/04 04:04:03;;;;;;;0.83;0.70;;;9.30;99.90;;;;;;4961073;28;20361;-37
2022/11/04 04:06:34;;;;;;;1.87;0.90;;;9.30;99.90;;;;;;5041741;28;20198;-36
2022/11/04 04:09:11;;;;;;;0.60;0.60;;;9.30;99.90;;;;;;5050658;28;20194;-36
2022/11/04 04:11:52;;;;;;;0.90;0.80;;;9.20;99.90;;;;;;5034036;28;20212;-38
2022/11/04 04:14:40;;;;;;;1.97;0.80;;;9.20;99.90;;;;;;5052063;28;20165;-37
2022/11/04 04:17:18;;;;;;;0.70;0.67;;;9.20;99.90;;;;;;5050402;28;20201;-36
2022/11/04 04:19:57;;;;;;;1.27;1.00;;;9.10;99.90;;;;;;5050505;28;20184;-37
2022/11/04 04:22:31;;;;;;;0.80;0.80;;;9.10;99.90;;;;;;5050487;28;20247;-37
2022/11/04 04:27:46;;;;;;;1.37;1.17;;;9.00;99.90;;;;;;5051424;28;20196;-39
2022/11/04 04:30:15;;;;;;;1.63;0.87;;;9.10;99.90;;;;;;5049975;28;20267;-38
2022/11/04 04:32:49;;;;;;;1.00;0.90;;;9.00;99.90;;;;;;5033204;28;20194;-38
2022/11/04 04:46:38;;;;;;;0.80;0.80;;;9.00;99.90;;;;;;5049971;28;20174;-37
2022/11/04 04:49:06;;;;;;;1.60;0.90;;;8.80;99.90;;;;;;5033281;28;20200;-37
2022/11/04 04:51:33;;;;;;;1.07;0.80;;;8.80;99.90;;;;;;5033711;28;20224;-37
2022/11/04 04:53:59;;;;;;;0.60;0.60;;;8.70;99.90;;;;;;5033574;28;20201;-37
2022/11/04 04:56:25;;;;;;;1.73;0.90;;;8.70;99.90;;;;;;5049965;28;20184;-38
2022/11/04 04:58:51;;;;;;;1.60;0.80;;;8.70;99.90;;;;;;5049777;28;20669;-37
2022/11/04 05:01:17;;;;;;;1.63;1.00;;;8.70;99.90;;;;;;5051665;28;20225;-36
2022/11/04 05:03:43;;;;;;;0.90;0.90;;;8.60;99.90;;;;;;5050902;28;20269;-36
2022/11/04 05:06:08;;;;;;;1.00;0.90;;;8.70;99.90;;;;;;5050039;28;20197;-37
2022/11/04 05:08:34;;;;;;;1.37;1.00;;;8.60;99.90;;;;;;5049764;28;20204;-36
2022/11/04 05:11:00;;;;;;;2.10;1.10;;;8.60;99.90;;;;;;5033023;28;20249;-38
2022/11/04 05:13:27;;;;;;;1.83;1.23;;;8.60;99.90;;;;;;5033233;28;20203;-36
2022/11/04 05:15:53;;;;;;;1.77;0.90;;;8.60;99.90;;;;;;5033206;28;20662;-36
2022/11/04 05:18:19;;;;;;;0.77;0.70;;;8.60;99.90;;;;;;5049423;28;20182;-36
2022/11/04 05:20:45;;;;;;;0.87;0.80;;;8.60;99.90;;;;;;5032946;28;20185;-37
2022/11/04 05:23:12;;;;;;;3.40;0.97;;;8.70;99.90;;;;;;5049653;28;20243;-36
2022/11/04 05:25:39;;;;;;;1.10;1.00;;;8.60;99.90;;;;;;5049655;28;20205;-36
2022/11/04 05:28:06;;;;;;;2.00;1.40;;;8.60;99.90;;;;;;5032736;28;20182;-37
2022/11/04 05:30:32;;;;;;;2.10;1.40;;;8.60;99.90;;;;;;5049559;28;20231;-38
2022/11/04 05:32:58;;;;;;;2.00;1.53;;;8.50;99.90;;;;;;5032620;28;20212;-38
2022/11/04 05:35:24;;;;;;;1.70;1.60;;;8.50;99.90;;;;;;5032869;28;20284;-36
2022/11/04 05:37:50;;;;;;;3.67;2.10;;;8.50;99.90;;;;;;5032716;28;20174;-36
2022/11/04 05:40:15;;;;;;;2.53;1.93;;;8.50;99.90;;;;;;5049637;28;20182;-36
2022/11/04 05:42:41;;;;;;;2.97;1.70;;;8.50;99.90;;;;;;5051089;28;20208;-37
2022/11/04 05:45:08;;;;;;;1.77;1.50;;;8.40;99.90;;;;;;5036942;28;20207;-36
2022/11/04 05:47:33;;;;;;;1.23;0.90;;;8.40;99.90;;;;;;5053011;28;20189;-37
2022/11/04 05:49:59;;;;;;;1.93;0.90;;;8.40;99.90;;;;;;5036665;28;20210;-37
2022/11/04 05:52:25;;;;;;;1.00;0.90;;;8.30;99.90;;;;;;5053409;28;20244;-37
2022/11/04 05:54:51;;;;;;;1.27;0.77;;;8.30;99.90;;;;;;5036795;28;20181;-38
2022/11/04 05:57:17;;;;;;;1.30;1.20;;;8.30;99.90;;;;;;5036515;28;20178;-38
2022/11/04 05:59:42;;;;;;;0.90;0.90;;;8.30;99.90;;;;;;5053325;28;20182;-37
2022/11/04 06:02:08;;;;;;;3.30;0.90;;;8.30;99.90;;;;;;5054234;28;20197;-38
2022/11/04 06:04:34;;;;;;;1.23;1.00;;;8.30;99.90;;;;;;5053055;28;20197;-38
2022/11/04 06:07:00;;;;;;;1.63;1.10;;;8.20;99.90;;;;;;5036376;28;20185;-38
2022/11/04 06:09:37;;;;;;;1.20;1.10;;;8.20;99.90;;;;;;5036629;28;20182;-37
2022/11/04 06:12:14;;;;;;;1.90;1.33;;;8.30;99.90;;;;;;5036588;28;20196;-36
2022/11/04 06:14:41;;;;;;;2.33;1.60;;;8.20;99.90;;;;;;5052889;28;20176;-38
2022/11/04 06:17:12;;;;;;;4.60;2.90;;;8.30;99.90;;;;;;5052725;28;20181;-37
2022/11/04 06:19:38;;;;;;;5.07;3.23;;;8.20;99.90;;;;;;5036463;28;20277;-36
2022/11/04 06:22:04;;;;;;;3.03;2.50;;;8.20;99.90;;;;;;5036274;28;20299;-36
2022/11/04 06:24:30;;;;;;;2.13;1.90;;;8.30;99.90;;;;;;5036309;28;20186;-36
2022/11/04 06:26:56;;;;;;;1.50;1.40;;;8.20;99.90;;;;;;5052618;28;20178;-38
2022/11/04 06:29:22;;;;;;;1.97;1.43;;;8.30;99.90;;;;;;5036085;28;20174;-36
2022/11/04 06:31:47;;;;;;;1.80;1.40;;;8.30;99.90;;;;;;5036296;28;20224;-36
2022/11/04 06:34:13;;;;;;;2.37;1.60;;;8.20;99.90;;;;;;5052517;28;20185;-35
2022/11/04 06:36:39;;;;;;;1.60;1.50;;;8.20;99.90;;;;;;5036105;28;20216;-37
2022/11/04 06:39:05;;;;;;;2.30;1.70;;;8.20;99.90;;;;;;5036049;28;20200;-38
2022/11/04 06:41:31;;;;;;;1.50;1.40;;;8.20;99.90;;;;;;5035644;28;20285;-36
2022/11/04 06:43:57;;;;;;;2.60;1.80;;;8.20;99.90;;;;;;5035903;28;20181;-36
2022/11/04 06:46:25;;;;;;;3.37;1.60;;;8.20;99.90;;;;;;5052456;28;20184;-37
2022/11/04 06:48:51;;;;;;;3.10;1.50;;;8.10;99.90;;;;;;5052062;28;20193;-35
2022/11/04 06:51:17;;;;;;;2.53;1.90;;;8.00;99.90;;;;;;5052165;28;20209;-36
2022/11/04 06:53:43;;;;;;;1.60;1.50;;;7.90;99.90;;;;;;5052804;28;20194;-37
2022/11/04 06:56:09;;;;;;;2.87;1.80;;;7.90;99.90;;;;;;5035658;28;20242;-36
2022/11/04 06:58:35;;;;;;;3.00;1.77;;;7.90;99.90;;;;;;5035440;28;20185;-38
2022/11/04 07:01:00;;;;;;;3.67;1.60;;;7.90;99.90;;;;;;5035452;28;20186;-37
2022/11/04 07:03:26;;;;;;;2.67;1.80;;;7.90;99.90;;;;;;5051981;28;20184;-35
2022/11/04 07:05:52;;;;;;;2.20;1.70;;;7.90;99.90;;;;;;5035126;28;20288;-36
2022/11/04 07:08:18;;;;;;;1.63;1.43;;;8.00;99.90;;;;;;5035216;28;20217;-37
2022/11/04 07:10:44;;;;;;;2.37;1.70;;;7.90;99.90;;;;;;5035263;28;20202;-36
2022/11/04 07:13:10;;;;;;;3.60;1.93;;;7.90;99.90;;;;;;5051768;28;20269;-37
2022/11/04 07:15:40;;;;;;;2.00;1.50;;;8.00;99.90;;;;;;5053188;28;20202;-36
2022/11/04 07:18:06;;;;;;;1.93;1.40;;;7.90;99.90;;;;;;5034905;28;20181;-37
2022/11/04 07:20:34;;;;;;;2.33;1.27;;;8.00;99.90;;;;;;5035216;28;20174;-38
2022/11/04 07:23:00;;;;;;;2.90;1.63;;;8.00;99.90;;;;;;5092231;23;20225;-30
2022/11/04 07:25:26;;;;;;;1.60;1.50;;;8.00;99.90;;;;;;5070840;28;20172;-30
2022/11/04 07:27:52;;;;;;;4.93;3.37;;;8.10;99.90;;;;;;5072595;28;20290;-30
2022/11/04 07:30:20;;;;;;;7.00;4.00;;;8.10;99.90;;;;;;5088344;28;20239;-30
2022/11/04 07:32:46;;;;;;;9.63;5.10;;;8.20;99.90;;;;;;5083346;28;20196;-30
2022/11/04 07:35:12;;;;;;;9.90;4.10;;;8.20;99.90;;;;;;5075188;28;20188;-30
2022/11/04 07:37:38;;;;;;;5.00;3.33;;;8.30;99.90;;;;;;5074584;28;20172;-31
2022/11/04 07:40:05;;;;;;;8.37;3.53;;;8.30;99.90;;;;;;5092754;28;20176;-30
2022/11/04 07:42:31;;;;;;;5.23;2.83;;;8.30;99.90;;;;;;5091562;28;20200;-30
2022/11/04 07:45:05;;;;;;;4.83;3.07;;;8.30;99.90;;;;;;5091508;28;20260;-30
2022/11/04 07:47:32;;;;;;;4.83;3.07;;;8.40;99.90;;;;;;5091214;28;20184;-29
2022/11/04 07:49:57;;;;;;;4.47;3.33;;;8.40;99.90;;;;;;5074583;28;20303;-30
2022/11/04 07:52:23;;;;;;;3.13;2.47;;;8.50;99.90;;;;;;5074392;28;20199;-30
2022/11/04 07:54:49;;;;;;;6.87;2.50;;;8.50;99.90;;;;;;5074391;28;20183;-30
2022/11/04 07:57:15;;;;;;;3.30;2.10;;;8.60;99.90;;;;;;5090839;28;20169;-30
2022/11/04 07:59:41;;;;;;;2.00;1.70;;;8.60;99.90;;;;;;5074299;28;20238;-30
2022/11/04 08:02:11;;;;;;;2.73;2.00;;;8.60;99.90;;;;;;5074119;28;20211;-30
2022/11/04 08:04:36;;;;;;;4.60;3.30;;;8.60;99.90;;;;;;5090891;28;20189;-30
2022/11/04 08:07:06;;;;;;;3.50;2.20;;;8.60;99.90;;;;;;5073783;28;20201;-29
2022/11/04 08:09:32;;;;;;;3.20;1.93;;;8.60;99.90;;;;;;5092488;28;20223;-30
2022/11/04 08:11:57;;;;;;;3.37;2.00;;;8.60;99.90;;;;;;5073831;28;20208;-29
2022/11/04 08:14:23;;;;;;;2.33;2.00;;;8.50;99.90;;;;;;5090912;28;20177;-30
2022/11/04 08:16:50;;;;;;;5.20;3.80;;;8.60;99.90;;;;;;5090630;28;20256;-29
2022/11/04 08:19:16;;;;;;;4.67;3.70;;;8.60;99.90;;;;;;5073909;28;20199;-30
2022/11/04 08:21:42;;;;;;;2.23;1.97;;;8.60;99.90;;;;;;5090487;28;20203;-29
2022/11/04 08:24:07;;;;;;;4.37;2.00;;;8.70;99.90;;;;;;5073706;28;20184;-30
2022/11/04 08:26:33;;;;;;;1.80;1.40;;;8.80;99.90;;;;;;5073617;28;20181;-32
2022/11/04 08:29:01;;;;;;;2.37;1.63;;;8.90;99.90;;;;;;5073536;28;20181;-31
2022/11/04 08:31:29;;;;;;;1.87;1.70;;;8.90;99.90;;;;;;5073516;28;20208;-30
2022/11/04 08:33:56;;;;;;;2.33;1.60;;;8.90;99.90;;;;;;5073779;28;20280;-30
2022/11/04 08:36:23;;;;;;;2.07;1.60;;;9.00;99.90;;;;;;5070480;28;20185;-29
2022/11/04 08:38:49;;;;;;;1.50;1.40;;;9.10;99.90;;;;;;5069987;28;20173;-30
2022/11/04 08:41:18;;;;;;;2.60;1.30;;;9.10;99.90;;;;;;5053532;28;20193;-30
2022/11/04 08:43:45;;;;;;;2.00;1.80;;;9.20;99.90;;;;;;5053449;28;20737;-30
2022/11/04 08:46:11;;;;;;;1.67;1.57;;;9.30;99.90;;;;;;5053415;28;20234;-29
2022/11/04 08:48:39;;;;;;;2.73;1.87;;;9.40;99.90;;;;;;5069622;28;20204;-30
2022/11/04 08:51:10;;;;;;;2.73;1.90;;;9.40;99.90;;;;;;5069967;28;20259;-31
2022/11/04 08:53:35;;;;;;;2.00;1.80;;;9.50;99.90;;;;;;5069867;28;20251;-31
2022/11/04 08:56:11;;;;;;;2.57;2.17;;;9.50;99.90;;;;;;5069981;28;20186;-31
2022/11/04 08:58:37;;;;;;;7.10;4.87;;;9.60;99.90;;;;;;5053019;28;20173;-31
2022/11/04 09:01:04;;;;;;;6.00;4.30;;;9.60;99.90;;;;;;5069853;28;20177;-31
2022/11/04 09:03:31;;;;;;;7.07;4.13;;;9.60;99.90;;;;;;5070862;28;20197;-31
2022/11/04 09:05:57;;;;;;;3.07;2.30;;;9.60;99.90;;;;;;5069696;28;20196;-31
2022/11/04 09:08:23;;;;;;;2.53;1.80;;;9.70;99.90;;;;;;5053081;28;20181;-31
2022/11/04 09:10:48;;;;;;;3.63;2.70;;;9.70;99.90;;;;;;5053116;28;20223;-31
2022/11/04 09:13:15;;;;;;;4.23;2.47;;;9.80;99.90;;;;;;5053109;28;20204;-31
2022/11/04 09:15:41;;;;;;;2.77;2.43;;;9.80;99.90;;;;;;5053033;28;20179;-31
2022/11/04 09:18:07;;;;;;;5.80;2.60;;;9.80;99.90;;;;;;5052349;28;20185;-31
2022/11/04 09:20:37;;;;;;;3.10;2.30;;;9.90;99.90;;;;;;5052873;28;20193;-31
2022/11/04 09:23:03;;;;;;;5.80;2.20;;;9.90;99.90;;;;;;5052908;28;20793;-29
2022/11/04 09:25:31;;;;;;;3.00;2.37;;;10.00;99.90;;;;;;5053080;28;20173;-30
2022/11/04 09:27:58;;;;;;;2.40;1.90;;;10.00;99.90;;;;;;5069489;28;20658;-30
2022/11/04 09:30:24;;;;;;;7.97;2.30;;;10.00;99.90;;;;;;5052687;28;20213;-30
2022/11/04 09:32:50;;;;;;;3.60;2.23;;;10.00;99.90;;;;;;5052809;28;20193;-30
2022/11/04 09:35:17;;;;;;;4.07;2.10;;;10.10;99.90;;;;;;5069392;28;20213;-29
2022/11/04 09:37:43;;;;;;;3.60;2.27;;;10.10;99.90;;;;;;5069153;28;20170;-29
2022/11/04 09:40:20;;;;;;;3.83;2.07;;;10.20;99.90;;;;;;5069456;28;20181;-30
2022/11/04 09:42:58;;;;;;;3.83;1.97;;;10.30;99.90;;;;;;5069333;28;20272;-30
2022/11/04 09:45:28;;;;;;;4.03;2.17;;;10.40;99.90;;;;;;5069568;28;20202;-30
2022/11/04 09:48:06;;;;;;;2.97;2.00;;;10.50;99.90;;;;;;5070529;28;20275;-30
2022/11/04 09:50:54;;;;;;;2.70;1.83;;;10.60;99.90;;;;;;5069349;28;20200;-30
2022/11/04 09:53:23;;;;;;;2.60;1.73;;;10.60;99.90;;;;;;5069071;28;20251;-31
2022/11/04 09:55:56;;;;;;;5.13;1.83;;;10.70;99.90;;;;;;5052527;28;20175;-29
2022/11/04 09:58:23;;;;;;;3.13;1.60;;;10.70;99.90;;;;;;5052285;28;20676;-29
2022/11/04 10:01:10;;;;;;;3.03;1.60;;;10.60;99.90;;;;;;5052742;28;20182;-29
2022/11/04 10:03:54;;;;;;;3.23;1.57;;;10.80;99.90;;;;;;5052574;28;20225;-30
2022/11/04 10:06:30;;;;;;;3.77;1.60;;;10.80;99.90;;;;;;5069013;28;20192;-31
2022/11/04 10:09:25;;;;;;;2.53;1.40;;;10.90;99.90;;;;;;5052335;28;20179;-30
2022/11/04 10:11:57;;;;;;;2.53;1.47;;;11.00;99.90;;;;;;5044114;28;20232;-30
2022/11/04 10:14:38;;;;;;;2.13;1.20;;;11.10;99.90;;;;;;5069158;28;20195;-30
2022/11/04 10:17:30;;;;;;;1.73;1.10;;;11.20;99.90;;;;;;5070086;28;20227;-29
2022/11/04 10:20:26;;;;;;;4.30;1.23;;;11.30;99.90;;;;;;5069189;28;20215;-30
2022/11/04 10:22:56;;;;;;;4.77;1.50;;;11.40;99.90;;;;;;5068999;28;20216;-29
2022/11/04 10:25:29;;;;;;;4.30;1.50;;;11.40;99.90;;;;;;5068995;28;20189;-31
2022/11/04 10:27:56;;;;;;;3.23;1.20;;;11.50;99.90;;;;;;5051979;28;20187;-30
2022/11/04 10:30:24;;;;;;;3.70;1.43;;;11.50;99.90;;;;;;5054728;28;20329;-31
2022/11/04 10:33:12;;;;;;;3.17;2.03;;;11.50;99.90;;;;;;5055813;28;20192;-30
2022/11/04 10:35:48;;;;;;;3.10;1.70;;;11.50;99.90;;;;;;5072541;28;20192;-29
2022/11/04 10:38:20;;;;;;;2.00;1.47;;;11.50;99.90;;;;;;5072291;28;20210;-30
2022/11/04 10:40:48;;;;;;;3.43;1.70;;;11.50;99.90;;;;;;5072501;28;20216;-30
2022/11/04 10:43:20;;;;;;;4.23;1.70;;;11.60;99.90;;;;;;5055654;28;20286;-32
2022/11/04 10:46:00;;;;;;;2.37;1.43;;;11.50;99.90;;;;;;5055623;28;20243;-30
2022/11/04 10:48:53;;;;;;;4.30;1.57;;;11.50;99.90;;;;;;5055402;28;20183;-31
2022/11/04 10:51:21;;;;;;;1.43;1.33;;;11.60;99.90;;;;;;5055837;28;20208;-30
2022/11/04 10:53:53;;;;;;;4.10;1.83;;;11.70;99.90;;;;;;5055358;28;20250;-30
2022/11/04 10:56:24;;;;;;;4.47;1.80;;;11.70;99.90;;;;;;5055684;28;20199;-31
2022/11/04 10:58:52;;;;;;;3.03;1.87;;;11.80;99.90;;;;;;5071964;28;20183;-29
2022/11/04 11:01:36;;;;;;;6.47;1.97;;;11.80;99.90;;;;;;5055376;28;20184;-30
2022/11/04 11:04:06;;;;;;;3.13;1.50;;;11.80;99.90;;;;;;5055451;28;20188;-30
2022/11/04 11:06:34;;;;;;;4.53;1.83;;;11.80;99.90;;;;;;5073218;28;20188;-31
2022/11/04 11:09:14;;;;;;;6.67;2.53;;;11.90;99.90;;;;;;5055171;28;20194;-31
2022/11/04 11:11:49;;;;;;;4.27;2.53;;;11.90;99.90;;;;;;5072957;28;20214;-30
2022/11/04 11:14:36;;;;;;;4.63;2.00;;;11.90;99.90;;;;;;5071714;28;20233;-31
2022/11/04 11:17:14;;;;;;;3.00;1.73;;;11.90;99.90;;;;;;5071797;28;20175;-29
2022/11/04 11:20:01;;;;;;;4.40;1.60;;;11.90;99.90;;;;;;5073073;28;20176;-29
2022/11/04 11:22:34;;;;;;;2.83;1.40;;;12.00;99.90;;;;;;5055040;28;20257;-29
2022/11/04 11:25:13;;;;;;;7.13;2.17;;;12.00;99.90;;;;;;5054724;28;20187;-31
2022/11/04 11:27:44;;;;;;;3.87;1.73;;;12.00;99.90;;;;;;5054523;28;20184;-31
2022/11/04 11:30:35;;;;;;;4.30;1.70;;;12.00;99.90;;;;;;5072833;28;20208;-31
2022/11/04 11:33:07;;;;;;;3.33;1.90;;;12.10;99.90;;;;;;5072835;28;20697;-30
2022/11/04 11:35:44;;;;;;;7.03;1.57;;;12.10;99.90;;;;;;5067640;28;20183;-30
2022/11/04 11:38:20;;;;;;;7.30;1.67;;;12.20;99.90;;;;;;5074551;28;20193;-30
2022/11/04 11:40:47;;;;;;;4.87;1.90;;;12.10;99.90;;;;;;5074396;28;20179;-30
2022/11/04 11:43:30;;;;;;;4.03;1.40;;;12.20;99.90;;;;;;5091551;28;20278;-29
2022/11/04 11:45:58;;;;;;;5.73;1.30;;;12.20;99.90;;;;;;5074570;28;20190;-31
2022/11/04 11:48:37;;;;;;;3.53;1.50;;;12.10;99.90;;;;;;5090948;28;20177;-29
2022/11/04 11:51:03;;;;;;;6.13;1.37;;;12.10;99.90;;;;;;5074613;28;20239;-29
2022/11/04 11:53:33;;;;;;;1.93;0.93;;;12.10;99.90;;;;;;5091209;28;20207;-30
2022/11/04 11:56:17;;;;;;;3.67;1.23;;;12.20;99.90;;;;;;5091297;28;20210;-30
2022/11/04 11:58:54;;;;;;;3.57;1.43;;;12.30;99.90;;;;;;5091000;28;20172;-30
2022/11/04 12:01:29;;;;;;;3.27;1.17;;;12.30;99.90;;;;;;5091029;28;20210;-30
2022/11/04 12:03:55;;;;;;;4.37;1.10;;;12.50;99.90;;;;;;5091451;28;20186;-30
2022/11/04 12:06:48;;;;;;;5.30;1.57;;;12.60;99.90;;;;;;5074310;28;20294;-30
2022/11/04 12:09:29;;;;;;;4.67;1.40;;;12.60;99.90;;;;;;5091297;28;20207;-30
2022/11/04 12:12:11;;;;;;;5.13;1.40;;;12.70;99.90;;;;;;5073950;28;20249;-29
2022/11/04 12:15:16;;;;;;;6.80;1.30;;;12.80;99.90;;;;;;5074045;28;20203;-30
2022/11/04 12:18:10;;;;;;;3.77;1.40;;;12.90;99.90;;;;;;5073525;28;20176;-30
2022/11/04 12:20:48;;;;;;;6.10;3.30;;;13.00;99.90;;;;;;5090936;28;20200;-29
2022/11/04 12:23:36;;;;;;;7.10;2.97;;;13.00;99.90;;;;;;5073859;28;20220;-30
2022/11/04 12:26:37;;;;;;;3.33;1.40;;;13.00;99.90;;;;;;5073883;28;20184;-29
2022/11/04 12:29:28;;;;;;;5.87;1.73;;;13.00;99.90;;;;;;5052399;28;20195;-30
2022/11/04 12:32:37;;;;;;;6.20;2.80;;;13.20;99.90;;;;;;5090379;28;20240;-30
2022/11/04 12:35:15;;;;;;;8.30;2.93;;;13.40;99.90;;;;;;5073600;28;20188;-30
2022/11/04 12:37:51;;;;;;;6.20;2.10;;;13.40;99.90;;;;;;5091583;28;20161;-30
2022/11/04 12:40:26;;;;;;;4.83;1.40;;;13.40;99.90;;;;;;5091758;28;20172;-30
2022/11/04 12:42:58;;;;;;;5.53;1.67;;;13.30;99.90;;;;;;5073486;28;20212;-28
2022/11/04 12:45:54;;;;;;;3.07;1.23;;;13.20;99.90;;;;;;5073383;28;20181;-31
2022/11/04 12:48:50;;;;;;;2.57;1.10;;;13.20;99.90;;;;;;5090151;28;20180;-31
2022/11/04 12:51:39;;;;;;;6.33;1.40;;;13.20;99.90;;;;;;5073295;28;20212;-31
2022/11/04 12:54:28;;;;;;;3.27;1.40;;;13.20;99.90;;;;;;5073326;28;20190;-31
2022/11/04 12:57:04;;;;;;;4.00;1.37;;;13.10;99.90;;;;;;5072958;28;20190;-31
2022/11/04 12:59:33;;;;;;;5.60;1.30;;;13.00;99.90;;;;;;5090064;28;20176;-31
2022/11/04 13:02:30;;;;;;;4.23;1.30;;;13.00;99.90;;;;;;5073109;28;20209;-31
2022/11/04 13:05:07;;;;;;;3.07;1.40;;;12.90;99.90;;;;;;5089231;28;20200;-31
2022/11/04 13:07:42;;;;;;;4.20;1.07;;;12.90;99.90;;;;;;5089909;28;20240;-31
2022/11/04 13:10:21;;;;;;;3.63;1.30;;;13.00;99.90;;;;;;5072983;28;20240;-31
2022/11/04 13:12:52;;;;;;;4.47;1.20;;;13.00;99.90;;;;;;5091114;28;20230;-30
2022/11/04 13:15:21;;;;;;;3.57;1.57;;;12.90;99.90;;;;;;5072948;28;20180;-31
2022/11/04 13:17:53;;;;;;;6.57;1.00;;;12.90;99.90;;;;;;5089759;28;20173;-30
2022/11/04 13:20:43;;;;;;;5.67;1.47;;;12.80;99.90;;;;;;5073140;28;20274;-31
2022/11/04 13:23:19;;;;;;;3.90;1.33;;;12.70;99.90;;;;;;5091807;22;20221;-37
2022/11/04 13:25:49;;;;;;;4.37;1.30;;;12.70;99.90;;;;;;5068614;28;20183;-37
2022/11/04 13:28:18;;;;;;;4.43;1.30;;;12.80;99.90;;;;;;5052689;28;20177;-36
2022/11/04 13:31:06;;;;;;;4.87;1.50;;;12.80;99.90;;;;;;5069429;28;20723;-37
2022/11/04 13:33:51;;;;;;;2.57;1.13;;;12.90;99.90;;;;;;5052746;28;20288;-38
2022/11/04 13:36:28;;;;;;;3.43;1.10;;;12.90;99.90;;;;;;5052593;28;20185;-36
2022/11/04 13:38:59;;;;;;;2.57;1.03;;;12.90;99.90;;;;;;5052448;28;20207;-36
2022/11/04 13:41:43;;;;;;;3.23;1.10;;;12.80;99.90;;;;;;5052881;28;20284;-39
2022/11/04 13:44:30;;;;;;;5.07;1.23;;;12.90;99.90;;;;;;5069788;28;20181;-38
2022/11/04 13:47:01;;;;;;;3.37;1.30;;;13.00;99.90;;;;;;5069250;28;20253;-38
2022/11/04 13:49:35;;;;;;;2.30;0.77;;;13.10;99.90;;;;;;5052795;28;20200;-38
2022/11/04 13:52:13;;;;;;;2.83;1.00;;;13.10;99.90;;;;;;5052486;28;20210;-39
2022/11/04 13:54:40;;;;;;;1.53;0.77;;;12.90;99.90;;;;;;5069398;28;20176;-36